createdAt,value
2018-12-01T00:01:24.213Z,47.70
2018-12-01T00:03:51.901Z,47.70
2018-12-01T00:06:35.461Z,47.70
2018-12-01T00:09:03.278Z,47.70
2018-12-01T00:11:30.938Z,47.80
2018-12-01T00:13:58.586Z,47.80
2018-12-01T00:16:26.303Z,47.80
2018-12-01T00:18:54.062Z,47.80
2018-12-01T00:21:21.752Z,47.80
2018-12-01T00:23:49.403Z,47.80
2018-12-01T00:26:17.096Z,47.80
2018-12-01T00:28:44.852Z,47.80
2018-12-01T00:31:12.544Z,47.80
2018-12-01T00:33:40.202Z,47.80
2018-12-01T00:36:07.832Z,47.80
2018-12-01T00:38:35.620Z,47.80
2018-12-01T00:41:03.374Z,47.80
2018-12-01T00:43:31.047Z,47.80
2018-12-01T00:45:58.749Z,47.70
2018-12-01T00:48:26.526Z,47.80
2018-12-01T00:50:54.201Z,47.80
2018-12-01T00:53:21.973Z,47.80
2018-12-01T00:55:49.654Z,47.90
2018-12-01T00:58:17.567Z,47.80
2018-12-01T01:00:45.333Z,47.90
2018-12-01T01:03:12.995Z,47.80
2018-12-01T01:05:40.753Z,47.80
2018-12-01T01:08:08.788Z,47.80
2018-12-01T01:10:36.467Z,47.90
2018-12-01T01:13:04.131Z,47.80
2018-12-01T01:15:31.829Z,48.40
2018-12-01T01:17:59.424Z,47.80
2018-12-01T01:20:27.066Z,47.80
2018-12-01T01:22:54.859Z,47.80
2018-12-01T01:25:22.595Z,47.80
2018-12-01T01:27:50.377Z,47.80
2018-12-01T01:30:21.136Z,47.80
2018-12-01T01:32:49.784Z,47.80
2018-12-01T01:35:17.486Z,47.80
2018-12-01T01:37:45.191Z,47.80
2018-12-01T01:40:16.032Z,47.80
2018-12-01T01:42:43.658Z,47.80
2018-12-01T01:45:18.041Z,47.80
2018-12-01T01:47:45.869Z,47.90
2018-12-01T01:50:17.008Z,47.90
2018-12-01T01:52:44.972Z,47.90
2018-12-01T01:55:12.819Z,47.90
2018-12-01T01:57:40.822Z,47.90
2018-12-01T02:00:17.849Z,47.90
2018-12-01T02:02:46.742Z,47.90
2018-12-01T02:05:14.956Z,47.90
2018-12-01T02:07:42.881Z,47.90
2018-12-01T02:10:11.666Z,48.60
2018-12-01T02:12:40.024Z,47.90
2018-12-01T02:15:08.691Z,47.90
2018-12-01T02:17:36.382Z,48.70
2018-12-01T02:20:06.791Z,47.90
2018-12-01T02:22:34.472Z,47.90
2018-12-01T02:25:02.125Z,47.90
2018-12-01T02:27:29.958Z,47.90
2018-12-01T02:29:57.876Z,47.90
2018-12-01T02:32:25.869Z,47.90
2018-12-01T02:34:53.770Z,47.90
2018-12-01T02:37:21.656Z,47.90
2018-12-01T02:39:49.309Z,47.90
2018-12-01T02:42:17.039Z,48.00
2018-12-01T02:45:06.637Z,47.90
2018-12-01T02:47:34.381Z,48.00
2018-12-01T02:50:02.451Z,47.90
2018-12-01T02:52:30.222Z,48.00
2018-12-01T02:54:57.855Z,47.90
2018-12-01T02:57:25.482Z,47.90
2018-12-01T02:59:53.188Z,47.90
2018-12-01T03:02:20.887Z,47.90
2018-12-01T03:04:48.653Z,48.00
2018-12-01T03:07:16.336Z,47.90
2018-12-01T03:09:50.846Z,48.00
2018-12-01T03:12:18.725Z,47.90
2018-12-01T03:14:46.549Z,48.00
2018-12-01T03:17:14.466Z,47.90
2018-12-01T03:19:42.349Z,48.00
2018-12-01T03:22:10.141Z,47.90
2018-12-01T03:24:38.488Z,48.00
2018-12-01T03:27:06.383Z,48.00
2018-12-01T03:29:34.278Z,47.90
2018-12-01T03:32:02.063Z,47.90
2018-12-01T03:34:29.909Z,48.00
2018-12-01T03:36:57.593Z,48.00
2018-12-01T03:39:25.321Z,48.00
2018-12-01T03:41:53.241Z,48.00
2018-12-01T03:44:21.061Z,48.10
2018-12-01T03:46:49.372Z,48.00
2018-12-01T03:49:17.387Z,48.00
2018-12-01T03:51:45.257Z,48.00
2018-12-01T03:54:13.454Z,48.00
2018-12-01T03:56:41.199Z,48.00
2018-12-01T03:59:08.850Z,48.00
2018-12-01T04:01:36.826Z,48.00
2018-12-01T04:04:05.331Z,48.00
2018-12-01T04:06:33.443Z,48.00
2018-12-01T04:09:05.588Z,48.00
2018-12-01T04:11:33.363Z,48.00
2018-12-01T04:14:01.051Z,48.00
2018-12-01T04:16:28.907Z,48.00
2018-12-01T04:18:56.724Z,48.00
2018-12-01T04:21:24.630Z,48.00
2018-12-01T04:23:52.261Z,48.00
2018-12-01T04:26:20.161Z,48.00
2018-12-01T04:28:47.960Z,48.00
2018-12-01T04:31:15.953Z,48.00
2018-12-01T04:33:43.650Z,48.00
2018-12-01T04:36:11.471Z,48.00
2018-12-01T04:38:39.543Z,48.00
2018-12-01T04:41:07.228Z,48.00
2018-12-01T04:43:34.881Z,48.00
2018-12-01T04:46:02.882Z,48.00
2018-12-01T04:48:30.675Z,48.00
2018-12-01T04:50:58.351Z,48.10
2018-12-01T04:53:26.146Z,48.00
2018-12-01T04:55:53.800Z,48.10
2018-12-01T04:58:21.626Z,48.00
2018-12-01T05:00:49.412Z,48.00
2018-12-01T05:03:17.204Z,48.00
2018-12-01T05:07:40.658Z,48.00
2018-12-01T05:10:12.559Z,48.10
2018-12-01T05:12:40.424Z,48.10
2018-12-01T05:16:32.316Z,48.10
2018-12-01T05:19:00.105Z,48.10
2018-12-01T05:21:28.465Z,48.00
2018-12-01T05:23:56.774Z,48.10
2018-12-01T05:26:25.323Z,48.10
2018-12-01T05:28:53.604Z,48.10
2018-12-01T05:31:21.544Z,48.10
2018-12-01T05:33:49.300Z,48.10
2018-12-01T05:36:16.971Z,48.10
2018-12-01T05:38:45.049Z,48.10
2018-12-01T05:41:12.994Z,48.10
2018-12-01T05:43:40.870Z,48.10
2018-12-01T05:46:08.558Z,48.10
2018-12-01T05:48:37.036Z,48.10
2018-12-01T05:51:04.804Z,48.10
2018-12-01T05:53:32.592Z,48.10
2018-12-01T05:58:20.859Z,48.10
2018-12-01T06:00:48.617Z,48.10
2018-12-01T06:03:16.508Z,48.10
2018-12-01T06:05:44.228Z,48.10
2018-12-01T06:08:11.957Z,48.00
2018-12-01T06:10:39.658Z,48.10
2018-12-01T06:13:07.346Z,48.00
2018-12-01T06:15:35.055Z,48.10
2018-12-01T06:18:02.727Z,48.10
2018-12-01T06:20:30.335Z,48.10
2018-12-01T06:22:57.959Z,48.10
2018-12-01T06:25:25.606Z,48.10
2018-12-01T06:27:53.303Z,48.20
2018-12-01T06:30:21.087Z,48.10
2018-12-01T06:32:49.869Z,47.60
2018-12-01T06:35:17.757Z,48.20
2018-12-01T06:37:45.399Z,48.10
2018-12-01T06:40:20.506Z,48.10
2018-12-01T06:42:48.704Z,48.30
2018-12-01T06:45:16.932Z,48.20
2018-12-01T06:47:45.598Z,48.10
2018-12-01T06:50:15.594Z,48.10
2018-12-01T06:52:43.500Z,48.10
2018-12-01T06:55:13.232Z,48.10
2018-12-01T06:59:38.309Z,48.20
2018-12-01T07:02:08.698Z,48.10
2018-12-01T07:04:39.393Z,48.10
2018-12-01T07:07:10.229Z,48.10
2018-12-01T07:09:39.072Z,48.10
2018-12-01T07:12:07.490Z,48.70
2018-12-01T07:14:36.227Z,48.00
2018-12-01T07:17:04.882Z,47.90
2018-12-01T07:19:32.633Z,47.90
2018-12-01T07:22:00.441Z,47.80
2018-12-01T07:24:28.088Z,47.70
2018-12-01T07:26:55.814Z,47.70
2018-12-01T07:29:23.568Z,47.70
2018-12-01T07:31:51.554Z,47.60
2018-12-01T07:34:20.590Z,47.70
2018-12-01T07:36:48.618Z,47.60
2018-12-01T07:39:16.435Z,47.60
2018-12-01T07:41:44.155Z,47.60
2018-12-01T07:44:11.926Z,47.60
2018-12-01T07:46:39.664Z,47.50
2018-12-01T07:49:07.767Z,47.50
2018-12-01T07:51:36.074Z,47.40
2018-12-01T07:54:03.686Z,48.00
2018-12-01T07:56:31.425Z,47.40
2018-12-01T07:58:59.126Z,46.90
2018-12-01T08:01:26.832Z,47.40
2018-12-01T08:03:54.513Z,47.30
2018-12-01T08:06:22.258Z,47.30
2018-12-01T08:08:49.905Z,47.30
2018-12-01T08:11:17.980Z,47.30
2018-12-01T08:13:46.409Z,47.30
2018-12-01T08:16:14.359Z,47.30
2018-12-01T08:18:42.160Z,47.30
2018-12-01T08:21:10.012Z,47.30
2018-12-01T08:23:38.260Z,47.30
2018-12-01T08:26:06.197Z,47.40
2018-12-01T08:28:34.254Z,47.30
2018-12-01T08:31:02.242Z,47.30
2018-12-01T08:33:30.032Z,47.40
2018-12-01T08:35:57.907Z,47.30
2018-12-01T08:38:25.513Z,47.30
2018-12-01T08:40:53.203Z,47.40
2018-12-01T08:43:20.879Z,47.40
2018-12-01T08:45:48.488Z,47.40
2018-12-01T08:48:16.249Z,47.40
2018-12-01T08:50:44.158Z,47.40
2018-12-01T08:53:11.882Z,47.40
2018-12-01T08:55:39.970Z,47.40
2018-12-01T08:58:07.572Z,47.40
2018-12-01T09:00:38.338Z,47.40
2018-12-01T09:03:17.080Z,47.40
2018-12-01T09:05:44.813Z,47.40
2018-12-01T09:08:12.474Z,47.50
2018-12-01T09:10:46.954Z,47.50
2018-12-01T09:13:14.703Z,48.10
2018-12-01T09:15:42.343Z,47.50
2018-12-01T09:18:10.120Z,47.50
2018-12-01T09:20:38.855Z,47.50
2018-12-01T09:23:06.582Z,47.50
2018-12-01T09:25:34.218Z,47.50
2018-12-01T09:28:01.902Z,47.50
2018-12-01T09:30:31.031Z,47.50
2018-12-01T09:32:58.659Z,47.50
2018-12-01T09:35:26.434Z,47.50
2018-12-01T09:37:54.319Z,47.50
2018-12-01T09:40:22.906Z,47.50
2018-12-01T09:42:50.641Z,47.50
2018-12-01T09:45:20.502Z,47.50
2018-12-01T09:47:48.991Z,47.50
2018-12-01T09:50:16.782Z,47.50
2018-12-01T09:52:45.970Z,47.50
2018-12-01T09:55:15.474Z,47.50
2018-12-01T09:57:43.684Z,47.50
2018-12-01T10:00:15.190Z,47.50
2018-12-01T10:02:43.345Z,47.50
2018-12-01T10:05:12.518Z,47.50
2018-12-01T10:07:40.307Z,47.50
2018-12-01T10:10:12.071Z,47.90
2018-12-01T10:12:40.359Z,47.50
2018-12-01T10:15:14.223Z,47.50
2018-12-01T10:17:42.056Z,47.60
2018-12-01T10:20:12.082Z,47.60
2018-12-01T10:22:39.768Z,47.50
2018-12-01T10:25:09.983Z,47.60
2018-12-01T10:27:38.166Z,47.60
2018-12-01T10:30:12.364Z,47.60
2018-12-01T10:32:40.163Z,47.60
2018-12-01T10:35:09.319Z,47.60
2018-12-01T10:37:36.954Z,47.60
2018-12-01T10:40:07.234Z,47.60
2018-12-01T10:42:34.923Z,47.60
2018-12-01T10:45:02.573Z,47.60
2018-12-01T10:47:30.206Z,47.60
2018-12-01T10:49:57.983Z,47.60
2018-12-01T10:52:25.591Z,47.60
2018-12-01T10:54:53.318Z,47.60
2018-12-01T10:57:20.986Z,47.60
2018-12-01T10:59:48.604Z,47.60
2018-12-01T11:02:21.818Z,47.60
2018-12-01T11:04:49.467Z,47.60
2018-12-01T11:07:17.257Z,47.60
2018-12-01T11:09:44.989Z,47.60
2018-12-01T11:12:12.629Z,47.30
2018-12-01T11:14:40.338Z,47.70
2018-12-01T11:17:08.124Z,47.60
2018-12-01T11:19:35.780Z,47.60
2018-12-01T11:22:03.590Z,47.60
2018-12-01T11:24:31.311Z,47.60
2018-12-01T11:26:58.942Z,48.10
2018-12-01T11:29:26.754Z,47.60
2018-12-01T11:31:54.430Z,47.60
2018-12-01T11:34:22.163Z,47.60
2018-12-01T11:36:49.814Z,47.60
2018-12-01T11:39:17.437Z,47.70
2018-12-01T11:41:45.051Z,47.70
2018-12-01T11:44:12.695Z,47.70
2018-12-01T11:46:40.537Z,47.70
2018-12-01T11:49:09.529Z,47.70
2018-12-01T11:51:35.959Z,47.70
2018-12-01T11:54:04.105Z,47.80
2018-12-01T11:56:31.984Z,47.80
2018-12-01T11:58:59.634Z,47.80
2018-12-01T12:01:27.268Z,47.80
2018-12-01T12:03:55.183Z,47.80
2018-12-01T12:06:22.940Z,47.70
2018-12-01T12:08:50.591Z,47.80
2018-12-01T12:11:18.433Z,47.80
2018-12-01T12:13:46.280Z,47.80
2018-12-01T12:16:16.308Z,47.80
2018-12-01T12:18:44.027Z,47.70
2018-12-01T12:21:11.801Z,47.70
2018-12-01T12:23:40.090Z,47.70
2018-12-01T12:26:08.328Z,47.80
2018-12-01T12:28:36.247Z,47.70
2018-12-01T12:31:03.906Z,47.80
2018-12-01T12:33:31.621Z,47.70
2018-12-01T12:35:59.301Z,47.80
2018-12-01T12:38:27.000Z,47.80
2018-12-01T12:40:54.620Z,47.80
2018-12-01T12:43:22.376Z,47.80
2018-12-01T12:45:50.442Z,47.80
2018-12-01T12:48:18.261Z,47.80
2018-12-01T12:50:46.514Z,47.80
2018-12-01T12:53:15.064Z,47.80
2018-12-01T12:55:42.835Z,47.80
2018-12-01T12:58:10.465Z,47.80
2018-12-01T13:00:38.919Z,47.90
2018-12-01T13:03:08.854Z,47.90
2018-12-01T13:05:44.307Z,47.90
2018-12-01T13:08:14.349Z,47.90
2018-12-01T13:11:52.552Z,47.90
2018-12-01T13:14:20.520Z,47.90
2018-12-01T13:16:48.311Z,47.90
2018-12-01T13:19:16.319Z,47.90
2018-12-01T13:21:44.706Z,47.90
2018-12-01T13:24:12.423Z,47.90
2018-12-01T13:26:40.456Z,47.90
2018-12-01T13:29:10.130Z,47.90
2018-12-01T13:31:39.111Z,48.00
2018-12-01T13:34:07.047Z,47.90
2018-12-01T13:36:34.723Z,47.90
2018-12-01T13:39:02.411Z,47.90
2018-12-01T13:41:30.165Z,47.90
2018-12-01T13:43:58.004Z,47.90
2018-12-01T13:46:26.367Z,47.60
2018-12-01T13:48:54.007Z,48.00
2018-12-01T13:51:23.345Z,47.90
2018-12-01T13:53:51.026Z,48.00
2018-12-01T13:56:20.950Z,48.00
2018-12-01T13:58:47.236Z,48.00
2018-12-01T14:01:14.973Z,48.00
2018-12-01T14:03:43.126Z,48.00
2018-12-01T14:06:10.863Z,48.00
2018-12-01T14:08:39.526Z,48.00
2018-12-01T14:11:07.198Z,48.00
2018-12-01T14:13:37.585Z,48.30
2018-12-01T14:16:07.772Z,48.00
2018-12-01T14:18:35.577Z,47.90
2018-12-01T14:21:04.940Z,47.90
2018-12-01T14:23:33.002Z,47.90
2018-12-01T14:26:00.867Z,47.90
2018-12-01T14:28:28.522Z,47.90
2018-12-01T14:30:57.044Z,47.90
2018-12-01T14:33:25.523Z,47.90
2018-12-01T14:35:53.143Z,47.90
2018-12-01T14:38:20.874Z,47.90
2018-12-01T14:40:49.342Z,48.40
2018-12-01T14:43:17.219Z,47.90
2018-12-01T14:45:46.843Z,47.90
2018-12-01T14:48:14.511Z,47.90
2018-12-01T14:50:42.183Z,47.90
2018-12-01T14:53:11.325Z,47.90
2018-12-01T14:55:39.395Z,47.90
2018-12-01T14:58:07.663Z,47.90
2018-12-01T15:00:35.951Z,47.90
2018-12-01T15:03:03.780Z,47.90
2018-12-01T15:05:31.600Z,47.90
2018-12-01T15:08:00.506Z,47.90
2018-12-01T15:10:28.405Z,48.60
2018-12-01T15:12:57.748Z,47.90
2018-12-01T15:15:27.379Z,47.90
2018-12-01T15:17:55.377Z,47.90
2018-12-01T15:20:24.021Z,47.90
2018-12-01T15:22:53.005Z,47.90
2018-12-01T15:25:21.710Z,47.90
2018-12-01T15:27:49.460Z,47.90
2018-12-01T15:30:22.194Z,47.90
2018-12-01T15:32:55.582Z,47.80
2018-12-01T15:35:23.758Z,47.80
2018-12-01T15:37:51.720Z,47.90
2018-12-01T15:40:20.966Z,47.80
2018-12-01T15:42:48.875Z,47.80
2018-12-01T15:45:17.804Z,47.90
2018-12-01T15:47:47.426Z,47.90
2018-12-01T15:50:22.661Z,47.80
2018-12-01T15:52:53.447Z,47.80
2018-12-01T15:55:21.824Z,47.90
2018-12-01T15:57:50.054Z,47.90
2018-12-01T16:00:20.544Z,48.40
2018-12-01T16:02:48.301Z,47.80
2018-12-01T16:05:16.868Z,47.90
2018-12-01T16:07:44.692Z,47.80
2018-12-01T16:10:14.753Z,47.90
2018-12-01T16:12:43.028Z,47.80
2018-12-01T16:15:15.588Z,47.90
2018-12-01T16:17:43.434Z,47.80
2018-12-01T16:20:13.238Z,47.80
2018-12-01T16:22:46.931Z,47.80
2018-12-01T16:25:17.517Z,47.90
2018-12-01T16:27:47.378Z,47.90
2018-12-01T16:30:16.908Z,47.90
2018-12-01T16:32:44.935Z,47.90
2018-12-01T16:35:12.626Z,48.40
2018-12-01T16:37:40.312Z,47.90
2018-12-01T16:40:11.944Z,47.90
2018-12-01T16:42:39.874Z,47.90
2018-12-01T16:45:09.773Z,47.90
2018-12-01T16:47:38.728Z,47.90
2018-12-01T16:50:12.027Z,47.90
2018-12-01T16:52:40.643Z,47.80
2018-12-01T16:55:11.394Z,47.90
2018-12-01T16:57:39.472Z,47.90
2018-12-01T17:00:10.138Z,47.90
2018-12-01T17:02:38.029Z,47.90
2018-12-01T17:05:07.167Z,47.90
2018-12-01T17:07:35.164Z,47.90
2018-12-01T17:10:03.099Z,47.90
2018-12-01T17:12:30.866Z,47.90
2018-12-01T17:14:59.104Z,47.90
2018-12-01T17:17:26.925Z,47.90
2018-12-01T17:19:54.676Z,47.90
2018-12-01T17:22:22.344Z,48.00
2018-12-01T17:24:49.981Z,47.90
2018-12-01T17:27:17.763Z,47.90
2018-12-01T17:29:46.069Z,47.90
2018-12-01T17:32:13.823Z,47.90
2018-12-01T17:34:41.698Z,47.90
2018-12-01T17:37:09.404Z,47.90
2018-12-01T17:39:37.316Z,47.90
2018-12-01T17:42:05.943Z,47.90
2018-12-01T17:44:33.554Z,48.60
2018-12-01T17:47:01.153Z,47.90
2018-12-01T17:49:28.798Z,47.90
2018-12-01T17:51:56.527Z,48.00
2018-12-01T17:54:24.312Z,48.60
2018-12-01T17:56:52.146Z,48.00
2018-12-01T17:59:19.801Z,48.00
2018-12-01T18:01:47.454Z,48.00
2018-12-01T18:04:15.210Z,48.00
2018-12-01T18:06:42.932Z,48.00
2018-12-01T18:09:10.598Z,48.00
2018-12-01T18:11:38.988Z,48.10
2018-12-01T18:14:08.547Z,48.30
2018-12-01T18:16:36.287Z,48.00
2018-12-01T18:19:04.199Z,48.00
2018-12-01T18:21:32.062Z,48.00
2018-12-01T18:23:59.928Z,47.60
2018-12-01T18:26:27.855Z,48.10
2018-12-01T18:28:55.719Z,48.10
2018-12-01T18:31:25.064Z,48.10
2018-12-01T18:34:02.365Z,48.10
2018-12-01T18:36:30.045Z,48.10
2018-12-01T18:38:57.787Z,48.10
2018-12-01T18:41:25.543Z,48.10
2018-12-01T18:43:53.263Z,48.10
2018-12-01T18:46:21.106Z,48.10
2018-12-01T18:48:48.942Z,48.10
2018-12-01T18:51:16.685Z,48.10
2018-12-01T18:53:44.497Z,48.10
2018-12-01T18:56:12.229Z,48.20
2018-12-01T18:58:40.003Z,48.10
2018-12-01T19:01:09.058Z,48.10
2018-12-01T19:03:37.052Z,48.10
2018-12-01T19:06:06.846Z,48.10
2018-12-01T19:08:34.523Z,48.10
2018-12-01T19:11:02.156Z,48.20
2018-12-01T19:13:29.783Z,48.10
2018-12-01T19:15:57.473Z,48.20
2018-12-01T19:18:25.153Z,48.10
2018-12-01T19:20:52.929Z,48.10
2018-12-01T19:23:20.812Z,48.20
2018-12-01T19:25:49.965Z,48.20
2018-12-01T19:28:17.582Z,48.10
2018-12-01T19:30:45.404Z,48.20
2018-12-01T19:33:14.563Z,48.10
2018-12-01T19:35:42.938Z,48.20
2018-12-01T19:38:13.999Z,48.20
2018-12-01T19:40:42.329Z,48.20
2018-12-01T19:43:10.117Z,48.20
2018-12-01T19:45:38.153Z,48.20
2018-12-01T19:48:07.387Z,48.20
2018-12-01T19:50:36.659Z,48.20
2018-12-01T19:53:05.553Z,48.30
2018-12-01T19:55:33.368Z,48.30
2018-12-01T19:58:03.192Z,48.30
2018-12-01T20:00:31.274Z,48.20
2018-12-01T20:03:03.280Z,48.30
2018-12-01T20:05:31.126Z,48.30
2018-12-01T20:07:59.216Z,48.30
2018-12-01T20:10:29.519Z,48.20
2018-12-01T20:13:01.296Z,48.20
2018-12-01T20:15:35.866Z,48.30
2018-12-01T20:18:38.783Z,48.30
2018-12-01T20:21:06.591Z,48.30
2018-12-01T20:23:34.273Z,48.30
2018-12-01T20:26:02.227Z,48.30
2018-12-01T20:28:29.942Z,48.30
2018-12-01T20:30:57.728Z,48.30
2018-12-01T20:33:25.416Z,48.20
2018-12-01T20:36:08.501Z,48.30
2018-12-01T20:38:39.970Z,48.20
2018-12-01T20:41:07.820Z,48.20
2018-12-01T20:43:35.626Z,48.30
2018-12-01T20:46:03.488Z,48.30
2018-12-01T20:48:31.319Z,48.30
2018-12-01T20:50:58.946Z,48.30
2018-12-01T20:53:26.598Z,48.30
2018-12-01T20:55:56.032Z,48.30
2018-12-01T20:58:26.118Z,48.30
2018-12-01T21:00:54.150Z,48.30
2018-12-01T21:03:21.899Z,48.30
2018-12-01T21:05:49.554Z,48.30
2018-12-01T21:08:17.254Z,48.30
2018-12-01T21:10:54.339Z,48.20
2018-12-01T21:13:22.108Z,48.30
2018-12-01T21:15:49.915Z,48.30
2018-12-01T21:18:17.597Z,48.30
2018-12-01T21:20:45.390Z,48.30
2018-12-01T21:23:13.121Z,48.30
2018-12-01T21:25:40.710Z,48.30
2018-12-01T21:28:08.485Z,48.30
2018-12-01T21:30:36.421Z,48.40
2018-12-01T21:33:12.707Z,48.30
2018-12-01T21:35:41.467Z,48.30
2018-12-01T21:38:10.769Z,48.30
2018-12-01T21:40:40.145Z,48.30
2018-12-01T21:43:08.246Z,48.90
2018-12-01T21:45:35.978Z,48.40
2018-12-01T21:48:05.141Z,48.40
2018-12-01T21:50:32.908Z,48.40
2018-12-01T21:53:00.638Z,48.40
2018-12-01T21:55:28.327Z,48.40
2018-12-01T21:57:56.311Z,48.40
2018-12-01T22:00:27.460Z,48.40
2018-12-01T22:02:57.478Z,48.30
2018-12-01T22:05:28.439Z,48.30
2018-12-01T22:07:56.175Z,48.30
2018-12-01T22:10:23.995Z,48.40
2018-12-01T22:12:52.108Z,48.30
2018-12-01T22:15:20.371Z,48.40
2018-12-01T22:17:48.220Z,48.30
2018-12-01T22:20:21.498Z,48.40
2018-12-01T22:22:49.920Z,48.30
2018-12-01T22:25:17.776Z,48.30
2018-12-01T22:27:46.428Z,48.30
2018-12-01T22:30:17.269Z,48.30
2018-12-01T22:32:47.430Z,48.30
2018-12-01T22:35:17.891Z,48.30
2018-12-01T22:37:45.749Z,48.30
2018-12-01T22:40:16.838Z,48.40
2018-12-01T22:42:44.622Z,48.40
2018-12-01T22:45:12.466Z,48.40
2018-12-01T22:47:40.102Z,48.40
2018-12-01T22:50:11.559Z,48.40
2018-12-01T22:52:39.900Z,48.30
2018-12-01T22:55:09.382Z,48.40
2018-12-01T22:57:37.104Z,48.40
2018-12-01T23:01:11.623Z,48.40
2018-12-01T23:03:40.778Z,48.40
2018-12-01T23:06:08.408Z,49.00
2018-12-01T23:08:36.409Z,48.40
2018-12-01T23:11:04.504Z,48.40
2018-12-01T23:13:32.339Z,48.40
2018-12-01T23:16:00.103Z,48.40
2018-12-01T23:18:27.869Z,48.40
2018-12-01T23:20:55.578Z,48.40
2018-12-01T23:23:23.689Z,48.40
2018-12-01T23:25:51.541Z,48.40
2018-12-01T23:28:19.252Z,48.40
2018-12-01T23:30:50.949Z,48.40
2018-12-01T23:33:23.846Z,48.40
2018-12-01T23:35:51.594Z,48.40
2018-12-01T23:38:19.276Z,47.90
2018-12-01T23:40:46.962Z,48.40
2018-12-01T23:43:14.886Z,48.40
2018-12-01T23:45:43.637Z,48.40
2018-12-01T23:48:11.371Z,48.20
2018-12-01T23:50:40.871Z,48.40
2018-12-01T23:53:11.196Z,48.40
2018-12-01T23:55:39.236Z,48.40
2018-12-01T23:58:07.304Z,48.40
